Time;durP1;ratioP1;P1;durP2;ratioP2;P2;SDS_P1;SDS_P2;PMS_P1;PMS_P2;Temp;Humidity;BMP_temperature;BMP_pressure;BME280_temperature;BME280_humidity;BME280_pressure;Samples;Min_cycle;Max_cycle;Signal;HPM_P1;HPM_P2
2023/06/01 00:01:42;;;;;;;14.18;5.47;;;;;;;10.01;100.00;101976.22;5064377;28;20190;-46
2023/06/01 00:04:09;;;;;;;10.40;5.25;;;;;;;10.03;100.00;101973.50;5064020;28;20254;-48
2023/06/01 00:06:35;;;;;;;15.93;6.60;;;;;;;10.04;100.00;101978.84;5060485;28;20190;-46
2023/06/01 00:09:02;;;;;;;13.88;5.65;;;;;;;10.05;100.00;101971.69;5060998;28;20276;-46
2023/06/01 00:11:28;;;;;;;14.85;5.43;;;;;;;9.99;100.00;101982.50;5056620;28;20681;-45
2023/06/01 00:13:54;;;;;;;11.48;5.45;;;;;;;10.09;100.00;101979.66;5059022;28;20199;-45
2023/06/01 00:16:19;;;;;;;14.68;6.40;;;;;;;9.98;100.00;101973.59;5068255;28;20280;-45
2023/06/01 00:18:45;;;;;;;14.18;5.20;;;;;;;10.01;100.00;101962.81;5063688;28;20175;-46
2023/06/01 00:21:11;;;;;;;17.92;5.90;;;;;;;10.04;100.00;101965.47;5058851;28;20186;-46
2023/06/01 00:23:40;;;;;;;18.73;5.47;;;;;;;9.96;100.00;101972.75;5055222;28;20183;-46
2023/06/01 00:26:07;;;;;;;15.10;5.55;;;;;;;9.95;100.00;101972.75;5061249;28;20199;-46
2023/06/01 00:28:33;;;;;;;15.55;6.07;;;;;;;9.88;100.00;101967.53;5062360;28;20716;-46
2023/06/01 00:30:58;;;;;;;11.27;4.93;;;;;;;9.94;100.00;101971.00;5059939;28;20254;-45
2023/06/01 00:33:24;;;;;;;15.75;6.03;;;;;;;9.94;100.00;101974.56;5060023;28;20198;-45
2023/06/01 00:35:50;;;;;;;13.60;6.50;;;;;;;10.03;100.00;101965.47;5062785;28;20203;-45
2023/06/01 00:38:16;;;;;;;18.75;5.72;;;;;;;10.10;100.00;101975.16;5064274;28;20658;-45
2023/06/01 00:40:43;;;;;;;16.55;5.72;;;;;;;10.00;100.00;101971.78;5054131;28;20222;-47
2023/06/01 00:43:08;;;;;;;14.18;6.20;;;;;;;9.99;100.00;101959.31;5063841;28;20214;-44
2023/06/01 00:45:34;;;;;;;16.15;5.65;;;;;;;10.01;100.00;101960.16;5056234;28;20626;-46
2023/06/01 00:48:01;;;;;;;13.90;5.60;;;;;;;10.01;100.00;101970.84;5059982;28;20240;-45
2023/06/01 00:50:26;;;;;;;14.95;5.57;;;;;;;10.04;100.00;101969.94;5059585;28;20187;-47
2023/06/01 00:52:53;;;;;;;16.33;5.90;;;;;;;10.06;100.00;101970.81;5060901;28;20198;-43
2023/06/01 00:55:20;;;;;;;16.17;5.97;;;;;;;10.13;100.00;101959.06;5064039;28;20624;-46
2023/06/01 00:57:47;;;;;;;17.70;5.90;;;;;;;10.19;100.00;101966.06;5060351;28;20285;-46
2023/06/01 01:00:13;;;;;;;18.70;5.65;;;;;;;10.17;100.00;101958.09;5059262;28;20725;-44
2023/06/01 01:02:39;;;;;;;16.67;6.22;;;;;;;10.11;100.00;101952.84;5062778;28;20258;-45
2023/06/01 01:05:09;;;;;;;13.60;6.65;;;;;;;10.13;100.00;101953.72;5057601;28;20199;-46
2023/06/01 01:07:50;;;;;;;13.38;6.13;;;;;;;10.18;100.00;101956.28;5064982;28;20207;-46
2023/06/01 01:10:43;;;;;;;14.57;5.97;;;;;;;10.05;100.00;101950.28;5057178;28;20300;-47
2023/06/01 01:13:20;;;;;;;12.32;5.72;;;;;;;10.23;100.00;101959.75;5052799;28;20180;-45
2023/06/01 01:15:48;;;;;;;18.25;5.93;;;;;;;10.15;100.00;101957.25;5056307;28;20202;-46
2023/06/01 01:18:42;;;;;;;17.95;6.55;;;;;;;10.23;100.00;101959.75;5062305;28;20241;-43
2023/06/01 01:21:27;;;;;;;20.92;5.65;;;;;;;10.24;100.00;101949.03;5075873;28;20195;-44
2023/06/01 01:24:22;;;;;;;16.92;6.55;;;;;;;10.08;100.00;101952.91;5058078;28;20179;-47
2023/06/01 01:27:01;;;;;;;13.90;6.00;;;;;;;10.16;100.00;101945.59;5056214;28;20207;-51
2023/06/01 01:29:31;;;;;;;16.73;5.82;;;;;;;10.22;100.00;101950.84;5056030;28;20266;-50
2023/06/01 01:32:00;;;;;;;18.08;5.85;;;;;;;10.16;100.00;101942.91;5062336;28;20178;-49
2023/06/01 01:34:28;;;;;;;18.75;6.57;;;;;;;10.27;100.00;101942.72;5057206;28;20195;-49
2023/06/01 01:36:54;;;;;;;18.85;6.57;;;;;;;10.26;100.00;101935.63;5067629;28;20190;-48
2023/06/01 01:39:20;;;;;;;20.45;6.25;;;;;;;10.25;100.00;101931.16;5061289;28;20221;-48
2023/06/01 01:41:46;;;;;;;18.23;5.85;;;;;;;10.31;100.00;101937.31;5056658;28;20234;-50
2023/06/01 01:44:14;;;;;;;18.02;6.40;;;;;;;10.21;100.00;101930.34;5060061;28;20178;-49
2023/06/01 01:47:09;;;;;;;14.98;5.45;;;;;;;10.33;100.00;101937.28;5059052;28;20253;-49
2023/06/01 01:49:43;;;;;;;18.27;6.13;;;;;;;10.29;100.00;101928.41;5052193;28;20286;-48
2023/06/01 01:52:14;;;;;;;16.17;5.95;;;;;;;10.31;100.00;101923.91;5062269;28;20688;-51
2023/06/01 01:54:46;;;;;;;15.38;6.00;;;;;;;10.30;100.00;101930.19;5059653;28;20694;-49
2023/06/01 01:57:16;;;;;;;15.52;6.18;;;;;;;10.24;100.00;101919.56;5056296;28;20260;-49
2023/06/01 01:59:49;;;;;;;16.75;5.78;;;;;;;10.24;100.00;101918.69;5065696;28;20252;-47
2023/06/01 02:02:14;;;;;;;15.27;5.20;;;;;;;10.24;100.00;101922.25;5065212;28;20194;-49
2023/06/01 02:04:41;;;;;;;16.38;5.95;;;;;;;10.31;100.00;101918.56;5060214;28;20421;-49
2023/06/01 02:07:08;;;;;;;14.23;5.60;;;;;;;10.24;100.00;101911.53;5048671;28;20650;-49
2023/06/01 02:09:34;;;;;;;16.08;5.68;;;;;;;10.23;100.00;101909.78;5067203;28;20270;-52
2023/06/01 02:12:00;;;;;;;19.75;6.88;;;;;;;10.22;100.00;101904.44;5066490;28;20283;-48
2023/06/01 02:14:27;;;;;;;16.52;6.15;;;;;;;10.14;100.00;101904.56;5067090;28;20252;-45
2023/06/01 02:16:53;;;;;;;15.82;6.32;;;;;;;10.20;100.00;101891.06;5067565;28;20640;-45
2023/06/01 02:19:19;;;;;;;20.58;6.13;;;;;;;10.27;100.00;101892.72;5062053;28;20641;-47
2023/06/01 02:21:45;;;;;;;22.15;6.43;;;;;;;10.25;100.00;101899.00;5061670;28;20179;-46
2023/06/01 02:24:11;;;;;;;17.67;5.55;;;;;;;10.33;100.00;101904.28;5058772;28;20523;-47
2023/06/01 02:26:36;;;;;;;16.60;6.03;;;;;;;10.30;100.00;101887.34;5054321;28;20187;-46
2023/06/01 02:29:04;;;;;;;17.45;6.05;;;;;;;10.33;100.00;101890.88;5053935;28;20179;-46
2023/06/01 02:31:34;;;;;;;21.80;6.32;;;;;;;10.45;100.00;101898.63;5066378;28;20684;-47
2023/06/01 02:34:01;;;;;;;11.85;5.68;;;;;;;10.60;100.00;101882.25;5060645;28;20190;-47
2023/06/01 02:36:28;;;;;;;22.23;6.68;;;;;;;10.43;100.00;101895.09;5064307;28;20712;-47
2023/06/01 02:38:55;;;;;;;15.75;5.55;;;;;;;10.37;100.00;101884.53;5059803;28;20289;-47
2023/06/01 02:41:21;;;;;;;19.20;5.88;;;;;;;10.42;100.00;101875.47;5055015;28;20195;-48
2023/06/01 02:43:48;;;;;;;14.75;5.45;;;;;;;10.30;100.00;101884.66;5058419;28;20162;-47
2023/06/01 02:46:14;;;;;;;13.30;5.90;;;;;;;10.30;100.00;101881.97;5052493;28;20286;-46
2023/06/01 02:48:41;;;;;;;19.73;5.53;;;;;;;10.29;100.00;101882.88;5061373;28;20185;-46
2023/06/01 02:51:07;;;;;;;10.98;4.85;;;;;;;10.46;100.00;101873.63;5068455;28;20207;-47
2023/06/01 02:53:33;;;;;;;19.13;5.50;;;;;;;10.33;100.00;101873.00;5054254;28;20678;-47
2023/06/01 02:55:58;;;;;;;16.35;5.60;;;;;;;10.31;100.00;101872.16;5053741;28;20581;-46
2023/06/01 02:58:59;;;;;;;18.60;5.53;;;;;;;10.26;100.00;101861.50;5026685;28;20295;-46
2023/06/01 03:01:35;;;;;;;14.80;5.18;;;;;;;10.34;100.00;101865.84;5049591;28;20193;-44
2023/06/01 03:04:04;;;;;;;17.05;5.03;;;;;;;10.30;100.00;101862.34;5060022;28;20565;-46
2023/06/01 03:06:37;;;;;;;13.93;5.20;;;;;;;10.27;100.00;101859.69;5064870;28;20198;-48
2023/06/01 03:09:12;;;;;;;12.40;4.93;;;;;;;10.42;100.00;101848.69;5055118;28;20186;-45
2023/06/01 03:12:02;;;;;;;17.95;5.15;;;;;;;10.40;100.00;101860.34;5051094;28;20195;-48
2023/06/01 03:14:28;;;;;;;17.98;5.50;;;;;;;10.43;100.00;101853.16;5055330;28;20204;-46
2023/06/01 03:16:54;;;;;;;16.65;5.20;;;;;;;10.58;100.00;101853.72;5055343;28;20187;-49
2023/06/01 03:19:21;;;;;;;21.85;6.50;;;;;;;10.57;100.00;101851.97;5057332;28;20171;-46
2023/06/01 03:21:53;;;;;;;14.05;5.13;;;;;;;10.60;100.00;101858.13;5060848;28;20200;-45
2023/06/01 03:24:22;;;;;;;15.73;5.47;;;;;;;10.42;100.00;101853.19;5059716;28;20271;-47
2023/06/01 03:26:48;;;;;;;20.50;6.63;;;;;;;10.25;100.00;101854.34;5055701;28;20206;-47
2023/06/01 03:29:14;;;;;;;15.50;5.43;;;;;;;10.31;100.00;101861.44;5066039;28;20170;-47
2023/06/01 03:31:41;;;;;;;17.27;5.20;;;;;;;10.43;100.00;101857.59;5057264;28;20269;-51
2023/06/01 03:34:07;;;;;;;18.40;5.60;;;;;;;10.37;100.00;101855.06;5058971;28;20344;-54
2023/06/01 03:36:32;;;;;;;15.15;5.22;;;;;;;10.29;100.00;101856.09;5056103;28;20201;-52
2023/06/01 03:38:59;;;;;;;15.32;5.43;;;;;;;10.43;100.00;101858.50;5060165;28;20182;-52
2023/06/01 03:41:26;;;;;;;14.55;5.30;;;;;;;10.47;100.00;101853.94;5062501;28;20527;-54
2023/06/01 03:43:52;;;;;;;12.73;4.82;;;;;;;10.56;100.00;101851.09;5064497;28;20201;-52
2023/06/01 03:46:19;;;;;;;15.18;5.60;;;;;;;10.55;100.00;101849.31;5057370;28;20191;-55
2023/06/01 03:48:44;;;;;;;17.17;5.38;;;;;;;10.53;100.00;101845.78;5053299;28;20526;-51
2023/06/01 03:51:10;;;;;;;17.65;5.32;;;;;;;10.44;100.00;101840.63;5056326;28;20191;-51
2023/06/01 03:53:37;;;;;;;16.27;5.80;;;;;;;10.41;100.00;101840.72;5053060;28;20210;-51
2023/06/01 03:56:02;;;;;;;20.55;6.53;;;;;;;10.53;100.00;101837.75;5060573;28;20624;-51
2023/06/01 03:58:30;;;;;;;19.27;5.88;;;;;;;10.52;100.00;101844.03;5054626;28;20202;-52
2023/06/01 04:00:56;;;;;;;17.98;5.65;;;;;;;10.55;100.00;101838.59;5052161;28;20179;-51
2023/06/01 04:03:24;;;;;;;20.92;6.43;;;;;;;10.50;100.00;101848.53;5051902;28;20170;-52
2023/06/01 04:05:50;;;;;;;14.65;6.07;;;;;;;10.54;100.00;101847.56;5058657;28;20194;-50
2023/06/01 04:08:17;;;;;;;17.48;5.88;;;;;;;10.61;100.00;101841.16;5060110;28;20188;-50
2023/06/01 04:10:42;;;;;;;21.45;6.45;;;;;;;10.48;100.00;101840.53;5061734;28;20217;-52
2023/06/01 04:13:09;;;;;;;15.05;6.57;;;;;;;10.67;100.00;101842.78;5057523;28;20558;-51
2023/06/01 04:15:35;;;;;;;20.30;6.30;;;;;;;10.57;100.00;101838.56;5063857;28;20198;-51
2023/06/01 04:18:02;;;;;;;18.10;6.10;;;;;;;10.60;100.00;101831.31;5060269;28;20696;-51
2023/06/01 04:20:37;;;;;;;13.38;6.28;;;;;;;10.52;100.00;101836.00;5059569;28;20186;-52
2023/06/01 04:23:03;;;;;;;21.23;6.05;;;;;;;10.63;100.00;101833.97;5062992;28;20558;-53
2023/06/01 04:25:30;;;;;;;14.15;5.72;;;;;;;10.64;100.00;101827.66;5063317;28;20187;-50
2023/06/01 04:27:55;;;;;;;17.08;5.78;;;;;;;10.76;100.00;101836.34;5062685;28;20645;-51
2023/06/01 04:30:23;;;;;;;13.85;4.90;;;;;;;10.69;100.00;101827.56;5055804;28;20204;-51
2023/06/01 04:32:49;;;;;;;16.17;5.45;;;;;;;10.70;100.00;101827.53;5065458;28;20266;-50
2023/06/01 04:35:16;;;;;;;17.95;6.32;;;;;;;10.61;100.00;101829.56;5067503;28;20268;-52
2023/06/01 04:37:43;;;;;;;15.43;6.55;;;;;;;10.87;100.00;101820.91;5059814;28;20194;-51
2023/06/01 04:40:13;;;;;;;14.07;5.78;;;;;;;10.87;100.00;101824.47;5059346;28;20270;-52
2023/06/01 04:42:41;;;;;;;17.75;5.57;;;;;;;10.87;100.00;101823.59;5066938;28;20563;-53
2023/06/01 04:45:09;;;;;;;20.27;5.32;;;;;;;10.89;100.00;101824.44;5064356;28;20199;-52
2023/06/01 04:47:39;;;;;;;13.93;5.50;;;;;;;10.88;100.00;101803.91;5065238;28;20190;-52
2023/06/01 04:50:10;;;;;;;12.82;4.40;;;;;;;10.83;100.00;101809.38;5039386;28;20179;-53
2023/06/01 04:52:40;;;;;;;10.07;4.63;;;;;;;10.83;100.00;101813.84;5060740;28;20205;-51
2023/06/01 04:55:06;;;;;;;13.45;4.28;;;;;;;10.85;100.00;101820.94;5059900;28;20700;-51
2023/06/01 04:57:33;;;;;;;14.07;4.20;;;;;;;10.84;100.00;101831.69;5059167;28;20223;-53
2023/06/01 05:00:00;;;;;;;13.90;3.67;;;;;;;10.81;100.00;101824.59;5063299;28;20224;-51
2023/06/01 05:02:26;;;;;;;10.75;3.47;;;;;;;10.79;100.00;101825.56;5060226;28;20183;-52
2023/06/01 05:04:52;;;;;;;14.13;3.65;;;;;;;10.85;100.00;101820.06;5063732;28;20211;-52
2023/06/01 05:07:18;;;;;;;18.13;3.67;;;;;;;10.67;100.00;101810.63;5066210;28;20163;-51
2023/06/01 05:09:43;;;;;;;9.90;3.90;;;;;;;10.85;100.00;101818.25;5061809;28;20194;-53
2023/06/01 05:12:09;;;;;;;11.13;3.58;;;;;;;10.77;99.87;101822.91;5067625;28;20648;-51
2023/06/01 05:14:35;;;;;;;11.68;3.50;;;;;;;10.69;99.56;101824.88;5052761;28;20214;-51
2023/06/01 05:17:03;;;;;;;9.80;3.40;;;;;;;10.82;99.02;101821.03;5057197;28;20175;-51
2023/06/01 05:19:29;;;;;;;9.73;3.05;;;;;;;10.86;98.65;101811.97;5060948;28;20207;-52
2023/06/01 05:21:54;;;;;;;9.00;3.30;;;;;;;10.83;98.61;101808.50;5060044;28;20696;-52
2023/06/01 05:24:20;;;;;;;12.10;3.30;;;;;;;10.93;98.11;101812.69;5062659;28;20262;-51
2023/06/01 05:26:45;;;;;;;16.00;3.25;;;;;;;10.81;98.08;101799.59;5058090;28;20617;-52
2023/06/01 05:29:11;;;;;;;10.15;3.28;;;;;;;10.99;97.61;101798.28;5064843;28;20183;-51
2023/06/01 05:31:37;;;;;;;15.02;4.15;;;;;;;10.91;97.31;101785.03;5061167;28;20733;-51
2023/06/01 05:34:03;;;;;;;14.30;3.35;;;;;;;10.86;96.90;101790.50;5051281;28;20250;-51
2023/06/01 05:36:31;;;;;;;16.20;3.42;;;;;;;11.17;96.82;101796.94;5052223;28;20559;-51
2023/06/01 05:38:59;;;;;;;12.13;3.67;;;;;;;11.07;96.33;101785.56;5067331;28;20381;-47
2023/06/01 05:41:25;;;;;;;13.15;3.42;;;;;;;11.17;96.25;101799.63;5068479;28;20235;-49
2023/06/01 05:43:52;;;;;;;12.98;3.47;;;;;;;11.13;96.40;101790.78;5070064;28;20162;-49
2023/06/01 05:46:18;;;;;;;14.20;3.45;;;;;;;11.11;97.03;101790.81;5069804;28;20202;-45
2023/06/01 05:48:44;;;;;;;18.27;3.83;;;;;;;11.06;97.11;101791.84;5069884;28;20568;-48
2023/06/01 05:51:12;;;;;;;15.00;3.88;;;;;;;11.16;96.43;101788.00;5069733;28;20166;-50
2023/06/01 05:53:38;;;;;;;20.20;13.05;;;;;;;11.31;96.05;101782.25;5069467;28;20747;-49
2023/06/01 05:56:03;;;;;;;11.45;3.25;;;;;;;11.06;95.70;101787.38;5075987;28;20186;-49
2023/06/01 05:58:29;;;;;;;11.57;3.17;;;;;;;11.03;95.50;101792.78;5090047;28;20223;-48
2023/06/01 06:00:57;;;;;;;17.52;4.18;;;;;;;11.25;95.40;101795.81;5073494;28;20178;-47
2023/06/01 06:03:23;;;;;;;12.45;3.17;;;;;;;11.16;94.25;101782.66;5090267;28;20514;-48
2023/06/01 06:05:49;;;;;;;17.08;4.10;;;;;;;11.05;93.79;101801.69;5090950;28;20185;-48
2023/06/01 06:08:15;;;;;;;9.38;3.35;;;;;;;11.13;93.59;101804.19;5091206;28;20170;-50
2023/06/01 06:10:41;;;;;;;12.90;4.07;;;;;;;11.01;93.38;101796.44;5091357;28;20606;-48
2023/06/01 06:13:07;;;;;;;15.15;4.40;;;;;;;11.11;93.39;101788.13;5089811;28;20178;-46
2023/06/01 06:15:32;;;;;;;16.00;4.25;;;;;;;11.27;93.25;101791.28;5091014;28;20216;-47
2023/06/01 06:17:58;;;;;;;13.57;3.85;;;;;;;11.12;92.36;101789.88;5091102;28;20629;-48
2023/06/01 06:20:23;;;;;;;13.68;4.10;;;;;;;11.19;92.44;101789.72;5090925;28;20166;-49
2023/06/01 06:22:50;;;;;;;12.15;3.40;;;;;;;11.27;92.36;101777.00;5089680;28;20245;-47
2023/06/01 06:25:16;;;;;;;11.30;3.42;;;;;;;11.21;91.86;101777.16;5090861;28;20266;-47
2023/06/01 06:27:42;;;;;;;16.10;3.83;;;;;;;11.60;91.32;101782.41;5091165;28;20767;-48
2023/06/01 06:30:07;;;;;;;16.52;3.25;;;;;;;11.75;90.95;101780.16;5090627;28;20158;-49
2023/06/01 06:32:34;;;;;;;14.52;3.80;;;;;;;11.49;90.87;101771.94;5090815;28;20169;-53
2023/06/01 06:35:00;;;;;;;13.82;4.07;;;;;;;11.59;90.65;101775.25;5089006;28;20201;-49
2023/06/01 06:37:25;;;;;;;17.95;4.47;;;;;;;11.63;90.50;101763.50;5089964;28;20525;-49
2023/06/01 06:39:51;;;;;;;12.48;3.92;;;;;;;11.64;90.79;101767.97;5090682;28;20539;-48
2023/06/01 06:42:16;;;;;;;17.90;4.07;;;;;;;11.70;90.68;101773.19;5090324;28;20186;-48
2023/06/01 06:44:42;;;;;;;16.20;4.00;;;;;;;11.66;90.51;101774.19;5090552;28;20174;-49
2023/06/01 06:47:07;;;;;;;16.38;4.00;;;;;;;11.65;90.46;101773.28;5090661;28;20157;-47
2023/06/01 06:49:33;;;;;;;15.70;3.47;;;;;;;11.52;90.06;101775.44;5090298;28;20170;-49
2023/06/01 06:51:58;;;;;;;15.68;3.78;;;;;;;11.77;89.53;101769.41;5090584;28;20174;-49
2023/06/01 06:54:24;;;;;;;14.00;3.78;;;;;;;11.73;89.65;101773.97;5090332;28;20236;-49
2023/06/01 06:56:49;;;;;;;11.70;3.22;;;;;;;11.83;89.33;101777.28;5090605;28;20198;-47
2023/06/01 06:59:15;;;;;;;14.93;3.50;;;;;;;11.95;88.37;101770.69;5090469;28;20162;-47
2023/06/01 07:01:40;;;;;;;13.57;3.53;;;;;;;11.76;88.53;101783.72;5090371;28;20248;-48
2023/06/01 07:04:06;;;;;;;11.75;3.47;;;;;;;11.99;87.94;101780.44;5090525;28;20242;-46
2023/06/01 07:06:32;;;;;;;10.95;3.42;;;;;;;12.17;87.64;101762.88;5089142;28;20405;-47
2023/06/01 07:08:58;;;;;;;15.73;3.95;;;;;;;12.34;86.58;101755.19;5089016;28;20572;-47
2023/06/01 07:11:26;;;;;;;17.73;4.25;;;;;;;12.30;86.35;101764.28;5070050;28;20171;-49
2023/06/01 07:13:53;;;;;;;12.55;3.72;;;;;;;12.43;86.33;101756.72;5070053;28;20273;-48
2023/06/01 07:16:18;;;;;;;15.40;4.15;;;;;;;12.39;86.41;101752.38;5069925;28;20266;-51
2023/06/01 07:18:44;;;;;;;13.57;3.88;;;;;;;12.33;86.39;101758.81;5069608;28;20302;-46
2023/06/01 07:21:10;;;;;;;14.60;4.13;;;;;;;12.41;86.39;101765.75;5069096;28;20167;-48
2023/06/01 07:23:35;;;;;;;14.32;3.83;;;;;;;12.23;86.07;101769.91;5070018;28;20193;-47
2023/06/01 07:26:01;;;;;;;20.40;4.15;;;;;;;12.44;85.73;101752.22;5069932;28;20228;-51
2023/06/01 07:28:26;;;;;;;16.85;4.03;;;;;;;12.34;85.72;101763.25;5068812;28;20166;-47
2023/06/01 07:30:53;;;;;;;17.48;3.58;;;;;;;12.15;85.69;101764.75;5070068;28;20621;-44
2023/06/01 07:33:19;;;;;;;16.02;3.80;;;;;;;12.36;85.17;101771.28;5070097;28;20170;-47
2023/06/01 07:35:45;;;;;;;12.52;3.45;;;;;;;12.43;84.75;101755.84;5069815;28;20190;-47
2023/06/01 07:38:11;;;;;;;11.70;3.53;;;;;;;12.55;84.66;101767.09;5069874;28;20497;-46
2023/06/01 07:40:37;;;;;;;13.20;3.40;;;;;;;12.55;84.12;101750.97;5069956;28;20214;-45
2023/06/01 07:43:02;;;;;;;9.40;3.55;;;;;;;12.75;84.05;101754.84;5051854;28;20247;-46
2023/06/01 07:45:28;;;;;;;15.40;3.33;;;;;;;12.47;84.66;101744.94;5065930;28;20703;-49
2023/06/01 07:47:53;;;;;;;13.13;3.83;;;;;;;12.63;84.43;101755.22;5058283;28;20317;-48
2023/06/01 07:50:19;;;;;;;12.88;3.70;;;;;;;12.65;83.95;101738.09;5057339;28;20655;-47
2023/06/01 07:52:45;;;;;;;16.35;3.63;;;;;;;12.72;84.04;101738.78;5058989;28;20256;-48
2023/06/01 07:55:11;;;;;;;15.75;3.55;;;;;;;12.92;83.93;101746.19;5063436;28;20205;-47
2023/06/01 07:57:36;;;;;;;14.52;3.40;;;;;;;13.16;83.73;101749.84;5066213;28;20185;-47
2023/06/01 08:00:11;;;;;;;15.25;3.30;;;;;;;12.90;82.99;101746.25;5061084;28;20187;-48
2023/06/01 08:02:37;;;;;;;14.48;3.20;;;;;;;12.79;83.42;101748.44;5061768;28;20544;-48
2023/06/01 08:05:02;;;;;;;8.93;2.92;;;;;;;12.96;82.59;101747.84;5064376;28;20282;-49
2023/06/01 08:07:29;;;;;;;13.25;3.45;;;;;;;12.92;82.48;101757.84;5060044;28;20704;-48
2023/06/01 08:09:55;;;;;;;8.52;3.30;;;;;;;13.16;82.33;101752.56;5065153;28;20182;-48
2023/06/01 08:12:21;;;;;;;17.27;3.80;;;;;;;13.10;82.12;101750.97;5077039;28;20290;-50
2023/06/01 08:14:47;;;;;;;16.05;3.65;;;;;;;13.45;81.93;101748.91;5063745;28;20296;-48
2023/06/01 08:17:13;;;;;;;11.88;3.35;;;;;;;13.17;81.76;101747.13;5067863;28;20265;-50
2023/06/01 08:19:42;;;;;;;9.73;3.00;;;;;;;13.27;82.13;101762.94;5067894;28;20179;-48
2023/06/01 08:22:07;;;;;;;12.43;3.13;;;;;;;13.23;81.68;101750.53;5061255;28;20179;-47
2023/06/01 08:24:33;;;;;;;13.77;3.20;;;;;;;13.15;82.10;101757.06;5066940;28;20166;-50
2023/06/01 08:26:58;;;;;;;16.17;3.10;;;;;;;13.39;81.95;101738.34;5061278;28;20277;-48
2023/06/01 08:29:24;;;;;;;16.60;3.33;;;;;;;13.83;80.59;101734.97;5061893;28;20681;-49
2023/06/01 08:31:50;;;;;;;13.33;3.53;;;;;;;13.72;79.64;101735.38;5062748;28;20446;-49
2023/06/01 08:34:15;;;;;;;12.25;3.22;;;;;;;13.72;79.44;101738.94;5054980;28;20280;-49
2023/06/01 08:36:41;;;;;;;16.98;3.17;;;;;;;13.66;79.35;101740.97;5056981;28;20196;-49
2023/06/01 08:39:23;;;;;;;10.52;2.65;;;;;;;13.86;78.46;101741.09;5060843;28;20181;-47
2023/06/01 08:42:03;;;;;;;14.65;2.90;;;;;;;13.87;78.23;101729.41;5060134;28;20190;-46
2023/06/01 08:44:38;;;;;;;15.48;2.95;;;;;;;13.59;78.18;101732.25;5063867;28;20546;-47
2023/06/01 08:47:04;;;;;;;16.08;2.95;;;;;;;13.39;78.94;101733.81;5045358;28;20182;-48
2023/06/01 08:49:31;;;;;;;11.57;2.35;;;;;;;13.87;78.79;101728.53;5063789;28;20190;-48
2023/06/01 08:52:00;;;;;;;9.60;2.85;;;;;;;13.35;78.83;101737.56;5059572;28;20182;-48
2023/06/01 08:54:27;;;;;;;12.88;2.85;;;;;;;13.72;78.84;101727.28;5056416;28;20276;-49
2023/06/01 08:56:53;;;;;;;13.63;2.90;;;;;;;14.69;77.83;101723.53;5060504;28;20211;-48
2023/06/01 08:59:19;;;;;;;12.45;3.72;;;;;;;14.40;76.69;101722.88;5066908;28;20182;-49
2023/06/01 09:01:46;;;;;;;13.07;2.85;;;;;;;14.35;76.90;101716.78;5058363;28;20220;-53
2023/06/01 09:04:13;;;;;;;9.07;2.95;;;;;;;14.38;76.39;101725.63;5057105;28;20457;-50
2023/06/01 09:06:41;;;;;;;15.50;2.88;;;;;;;14.73;75.79;101717.06;5060329;28;20247;-51
2023/06/01 09:09:11;;;;;;;14.80;3.45;;;;;;;14.26;75.44;101717.16;5061725;28;20175;-50
2023/06/01 09:11:36;;;;;;;15.23;2.53;;;;;;;15.00;74.90;101709.66;5064817;28;20194;-51
2023/06/01 09:14:08;;;;;;;8.50;2.40;;;;;;;15.06;74.36;101703.97;5060012;28;20192;-50
2023/06/01 09:16:38;;;;;;;11.38;2.50;;;;;;;15.11;73.52;101709.16;5059830;28;20233;-52
2023/06/01 09:19:03;;;;;;;10.30;2.80;;;;;;;15.67;72.89;101705.78;5064445;28;20182;-50
2023/06/01 09:21:29;;;;;;;8.50;2.83;;;;;;;15.28;72.28;101697.66;5058271;28;20183;-51
2023/06/01 09:23:55;;;;;;;12.95;2.63;;;;;;;15.23;71.70;101684.34;5054594;28;20189;-50
2023/06/01 09:26:26;;;;;;;8.52;2.80;;;;;;;15.30;72.44;101693.94;5055689;28;20198;-50
2023/06/01 09:28:54;;;;;;;18.63;3.05;;;;;;;15.80;72.47;101692.63;5059684;28;20175;-51
2023/06/01 09:31:40;;;;;;;10.90;2.80;;;;;;;15.53;71.93;101700.16;5058052;28;20484;-50
2023/06/01 09:34:07;;;;;;;8.48;2.63;;;;;;;15.57;71.65;101691.84;5062027;28;20762;-50
2023/06/01 09:36:33;;;;;;;12.25;2.75;;;;;;;15.90;70.98;101669.66;5057765;28;20549;-49
2023/06/01 09:39:28;;;;;;;10.57;2.70;;;;;;;15.96;70.36;101665.75;5062614;28;20189;-50
2023/06/01 09:41:55;;;;;;;9.98;2.45;;;;;;;16.27;68.75;101648.94;5054989;28;20253;-51
2023/06/01 09:44:32;;;;;;;10.50;2.45;;;;;;;16.54;67.95;101644.00;5057520;28;20195;-50
2023/06/01 09:47:02;;;;;;;14.88;2.95;;;;;;;16.68;68.03;101651.41;5058928;28;20582;-50
2023/06/01 09:49:30;;;;;;;9.77;2.00;;;;;;;16.87;68.04;101651.38;5067373;28;20179;-50
2023/06/01 09:52:04;;;;;;;12.15;2.63;;;;;;;17.03;67.29;101641.53;5062428;28;20175;-49
2023/06/01 09:54:36;;;;;;;11.13;2.25;;;;;;;16.69;66.73;101640.50;5053303;28;20198;-50
2023/06/01 09:57:03;;;;;;;14.98;2.50;;;;;;;16.69;66.51;101637.81;5054478;28;20181;-48
2023/06/01 09:59:36;;;;;;;8.25;2.30;;;;;;;16.86;67.41;101636.97;5061656;28;20182;-46
2023/06/01 10:02:04;;;;;;;11.13;2.38;;;;;;;17.03;66.48;101637.91;5053141;28;20646;-51
2023/06/01 10:04:30;;;;;;;7.82;2.35;;;;;;;17.04;65.41;101629.72;5067486;28;20390;-47
2023/06/01 10:06:57;;;;;;;9.02;2.65;;;;;;;17.19;65.40;101636.16;5060719;28;20195;-47
2023/06/01 10:09:24;;;;;;;8.75;2.10;;;;;;;17.12;64.38;101615.78;5058816;28;20248;-47
2023/06/01 10:11:53;;;;;;;8.00;2.28;;;;;;;17.23;65.29;101626.94;5057556;28;20179;-47
2023/06/01 10:14:24;;;;;;;12.23;3.20;;;;;;;16.84;65.60;101632.59;5065610;28;20187;-48
2023/06/01 10:16:51;;;;;;;8.80;2.00;;;;;;;17.43;64.09;101614.13;5056188;28;20202;-47
2023/06/01 10:19:17;;;;;;;10.35;2.38;;;;;;;17.50;62.89;101597.44;5065278;28;20595;-46
2023/06/01 10:21:47;;;;;;;13.10;2.22;;;;;;;17.25;62.10;101586.19;5061815;28;20186;-47
2023/06/01 10:24:19;;;;;;;15.05;2.83;;;;;;;17.26;63.64;101598.78;5059673;28;20228;-48
2023/06/01 10:27:09;;;;;;;12.18;2.80;;;;;;;17.49;63.09;101601.13;5066270;28;20190;-46
2023/06/01 10:29:35;;;;;;;11.68;2.38;;;;;;;17.32;63.41;101589.44;5069284;28;20174;-47
2023/06/01 10:32:01;;;;;;;12.45;2.67;;;;;;;16.91;63.03;101593.44;5052814;28;20163;-47
2023/06/01 10:34:42;;;;;;;14.10;2.60;;;;;;;17.18;63.63;101588.34;5050524;28;20240;-46
2023/06/01 10:37:07;;;;;;;12.77;2.28;;;;;;;17.98;62.71;101589.41;5050344;28;20599;-51
2023/06/01 10:39:34;;;;;;;11.82;2.22;;;;;;;18.14;61.74;101591.22;5050690;28;20226;-47
2023/06/01 10:42:18;;;;;;;14.15;2.67;;;;;;;17.54;60.48;101581.03;5050359;28;20764;-46
2023/06/01 10:44:44;;;;;;;9.13;2.28;;;;;;;17.95;60.77;101586.88;5082413;28;20193;-46
2023/06/01 10:47:12;;;;;;;12.50;2.58;;;;;;;17.51;62.52;101590.19;5058513;28;20217;-48
2023/06/01 10:49:47;;;;;;;8.48;2.42;;;;;;;17.97;61.97;101592.19;5058260;28;20198;-47
2023/06/01 10:52:41;;;;;;;9.55;2.38;;;;;;;17.67;61.60;101582.09;5070519;28;20166;-49
2023/06/01 10:55:06;;;;;;;10.75;2.50;;;;;;;17.30;61.04;101568.75;5058009;28;20217;-51
2023/06/01 10:57:36;;;;;;;12.60;2.60;;;;;;;17.75;61.59;101573.53;5066477;28;20628;-46
2023/06/01 11:00:11;;;;;;;12.05;2.42;;;;;;;17.76;60.92;101570.75;5051940;28;20262;-46
2023/06/01 11:02:56;;;;;;;16.85;2.88;;;;;;;17.61;62.24;101579.72;5054064;28;20206;-47
2023/06/01 11:05:46;;;;;;;18.10;3.17;;;;;;;18.22;60.88;101573.53;5054520;28;20663;-48
2023/06/01 11:08:21;;;;;;;14.38;2.97;;;;;;;17.39;61.47;101561.09;5063465;28;20708;-47
2023/06/01 11:10:56;;;;;;;14.95;2.78;;;;;;;18.32;62.00;101577.47;5062403;28;20199;-48
2023/06/01 11:13:25;;;;;;;11.48;2.40;;;;;;;18.28;61.17;101570.47;5059580;28;20537;-48
2023/06/01 11:18:44;;;;;;;16.45;2.85;;;;;;;18.09;59.87;101557.09;5064357;28;20187;-48
2023/06/01 11:21:15;;;;;;;9.13;2.40;;;;;;;17.46;60.22;101552.50;5058568;28;20174;-49
2023/06/01 11:23:40;;;;;;;12.73;2.50;;;;;;;18.00;59.78;101554.94;5051242;28;20217;-46